createdAt,value
2019-01-12T00:04:54.208Z,90.53
2019-01-12T00:07:43.479Z,90.76
2019-01-12T00:10:50.619Z,91.73
2019-01-12T00:13:40.517Z,92.16
2019-01-12T00:26:05.526Z,90.42
2019-01-12T00:29:16.910Z,90.90
2019-01-12T00:31:59.966Z,90.97
2019-01-12T00:35:07.094Z,91.04
2019-01-12T01:00:26.824Z,94.57
2019-01-12T01:06:37.978Z,95.61
2019-01-12T01:09:27.246Z,96.00
2019-01-12T01:12:38.399Z,96.31
2019-01-12T01:18:46.863Z,96.30
2019-01-12T01:31:41.498Z,94.20
2019-01-12T01:37:49.671Z,93.88
2019-01-12T01:43:57.486Z,94.62
2019-01-12T01:46:46.804Z,95.15
2019-01-12T01:49:53.930Z,95.36
2019-01-12T01:52:43.209Z,94.55
2019-01-12T01:55:50.320Z,95.44
2019-01-12T02:05:55.460Z,93.85
2019-01-12T02:14:59.279Z,95.12
2019-01-12T02:24:37.958Z,95.81
2019-01-12T02:27:44.808Z,96.66
2019-01-12T02:30:53.569Z,97.61
2019-01-12T02:37:07.270Z,99.25
2019-01-12T02:39:56.547Z,99.69
2019-01-12T02:43:03.651Z,100.00
2019-01-12T02:49:11.312Z,100.00
2019-01-12T02:52:19.707Z,100.00
2019-01-12T02:55:26.816Z,100.00
2019-01-12T02:58:16.142Z,100.00
2019-01-12T03:01:23.266Z,100.00
2019-01-12T03:04:12.543Z,100.00
2019-01-12T03:07:19.670Z,100.00
2019-01-12T03:10:26.757Z,100.00
2019-01-12T03:13:35.208Z,100.00
2019-01-12T03:16:42.289Z,100.00
2019-01-12T03:19:50.741Z,100.00
2019-01-12T03:22:57.832Z,100.00
2019-01-12T05:05:13.539Z,100.00
2019-01-12T07:13:13.289Z,81.62
2019-01-12T07:16:04.087Z,75.95
2019-01-12T07:19:08.950Z,71.02
2019-01-12T07:21:58.221Z,65.42
2019-01-12T07:25:02.996Z,63.15
2019-01-12T07:28:10.877Z,60.51
2019-01-12T07:30:58.901Z,59.23
2019-01-12T07:34:06.503Z,59.94
2019-01-12T07:36:54.728Z,61.03
2019-01-12T07:39:59.239Z,60.40
2019-01-12T07:42:47.172Z,57.47
2019-01-12T07:45:51.807Z,56.92
2019-01-12T07:48:39.906Z,56.33
2019-01-12T07:51:45.690Z,55.29
2019-01-12T07:54:33.582Z,54.01
2019-01-12T07:57:41.542Z,51.96
2019-01-12T08:00:31.101Z,50.47
2019-01-12T08:03:36.034Z,50.20
2019-01-12T08:06:24.026Z,49.38
2019-01-12T08:09:28.798Z,48.74
2019-01-12T08:12:16.578Z,47.65
2019-01-12T08:15:21.523Z,48.05
2019-01-12T08:18:09.570Z,47.39
2019-01-12T08:21:15.592Z,46.30
2019-01-12T08:24:06.110Z,43.97
2019-01-12T08:27:16.902Z,44.57
2019-01-12T08:30:07.975Z,44.38
2019-01-12T08:33:12.619Z,43.80
2019-01-12T08:36:00.528Z,44.21
2019-01-12T08:39:06.440Z,44.18
2019-01-12T08:41:54.664Z,43.65
2019-01-12T08:44:59.580Z,43.56
2019-01-12T08:48:04.506Z,42.11
2019-01-12T08:50:52.785Z,42.15
2019-01-12T08:53:57.620Z,41.13
2019-01-12T08:56:47.109Z,40.20
2019-01-12T08:59:52.054Z,37.94
2019-01-12T09:02:44.572Z,38.14
2019-01-12T09:05:49.271Z,38.13
2019-01-12T09:08:37.320Z,37.76
2019-01-12T09:11:43.046Z,37.82
2019-01-12T09:14:31.105Z,36.73
2019-01-12T09:17:36.817Z,36.21
2019-01-12T09:20:26.230Z,36.91
2019-01-12T09:23:30.965Z,36.25
2019-01-12T09:26:18.991Z,36.57
2019-01-12T09:29:23.788Z,36.70
2019-01-12T09:32:11.524Z,36.42
2019-01-12T09:35:16.620Z,34.67
2019-01-12T09:38:05.788Z,35.47
2019-01-12T09:41:11.392Z,36.00
2019-01-12T09:44:15.821Z,34.82
2019-01-12T09:47:03.649Z,34.07
2019-01-12T09:50:08.421Z,34.08
2019-01-12T09:53:00.555Z,33.55
2019-01-12T09:56:05.331Z,33.98
2019-01-12T09:58:53.221Z,33.28
2019-01-12T10:01:57.778Z,33.78
2019-01-12T10:04:45.838Z,33.93
2019-01-12T10:07:50.798Z,33.30
2019-01-12T10:10:41.941Z,32.97
2019-01-12T10:13:46.527Z,33.21
2019-01-12T10:16:34.665Z,33.40
2019-01-12T10:19:39.124Z,33.73
2019-01-12T10:22:28.717Z,33.53
2019-01-12T10:25:34.818Z,32.71
2019-01-12T10:28:22.862Z,32.77
2019-01-12T10:31:28.975Z,32.47
2019-01-12T10:34:17.378Z,32.38
2019-01-12T10:37:23.575Z,32.07
2019-01-12T10:40:11.411Z,31.71
2019-01-12T10:43:16.532Z,32.31
2019-01-12T10:46:21.874Z,31.99
2019-01-12T10:49:10.836Z,32.42
2019-01-12T10:52:15.375Z,32.17
2019-01-12T10:55:03.498Z,32.60
2019-01-12T10:58:09.533Z,32.99
2019-01-12T11:00:57.925Z,33.08
2019-01-12T11:04:02.655Z,34.85
2019-01-12T11:06:51.467Z,34.82
2019-01-12T11:09:55.846Z,34.00
2019-01-12T11:12:45.229Z,34.58
2019-01-12T11:15:51.566Z,33.74
2019-01-12T11:18:39.891Z,32.98
2019-01-12T11:21:44.686Z,32.35
2019-01-12T11:24:32.895Z,32.03
2019-01-12T11:27:38.802Z,32.50
2019-01-12T11:30:12.874Z,31.87
2019-01-12T11:32:42.133Z,32.24
2019-01-12T11:35:11.633Z,32.07
2019-01-12T11:37:40.256Z,31.60
2019-01-12T11:40:14.910Z,32.77
2019-01-12T11:42:43.588Z,32.28
2019-01-12T11:45:12.215Z,32.40
2019-01-12T11:47:40.899Z,32.24
2019-01-12T11:50:12.573Z,32.29
2019-01-12T11:52:41.200Z,32.09
2019-01-12T11:55:11.718Z,32.30
2019-01-12T11:57:40.398Z,31.89
2019-01-12T12:00:14.982Z,32.86
2019-01-12T12:02:46.400Z,32.30
2019-01-12T12:05:15.038Z,32.54
2019-01-12T12:07:43.664Z,32.03
2019-01-12T12:10:14.251Z,32.04
2019-01-12T12:12:42.865Z,32.10
2019-01-12T12:15:14.547Z,31.56
2019-01-12T12:17:43.167Z,31.81
2019-01-12T12:20:14.973Z,32.45
2019-01-12T12:22:46.334Z,32.81
2019-01-12T12:25:15.155Z,32.41
2019-01-12T12:27:52.714Z,32.11
2019-01-12T12:30:23.537Z,31.99
2019-01-12T12:32:52.110Z,30.67
2019-01-12T12:35:20.721Z,30.80
2019-01-12T12:37:49.391Z,30.85
2019-01-12T12:40:21.060Z,30.20
2019-01-12T12:42:57.284Z,31.22
2019-01-12T12:45:28.841Z,31.68
2019-01-12T12:48:05.983Z,31.83
2019-01-12T12:50:34.720Z,31.77
2019-01-12T12:53:03.852Z,31.64
2019-01-12T12:55:32.485Z,32.04
2019-01-12T12:58:05.391Z,33.22
2019-01-12T13:00:34.126Z,32.67
2019-01-12T13:03:02.760Z,33.75
2019-01-12T13:05:38.646Z,33.28
2019-01-12T13:08:07.355Z,32.86
2019-01-12T13:10:36.036Z,32.70
2019-01-12T13:13:04.758Z,32.16
2019-01-12T13:15:33.437Z,32.69
2019-01-12T13:18:02.064Z,33.91
2019-01-12T13:20:33.712Z,33.62
2019-01-12T13:23:02.353Z,33.54
2019-01-12T13:25:31.038Z,33.63
2019-01-12T13:27:59.712Z,33.85
2019-01-12T13:30:28.729Z,34.12
2019-01-12T13:32:57.359Z,33.79
2019-01-12T13:35:26.181Z,34.30
2019-01-12T13:37:54.884Z,34.18
2019-01-12T13:40:27.222Z,35.32
2019-01-12T13:42:58.587Z,35.32
2019-01-12T13:45:27.317Z,35.03
2019-01-12T13:47:55.939Z,35.27
2019-01-12T13:50:26.424Z,34.68
2019-01-12T13:53:04.207Z,35.09
2019-01-12T13:55:35.638Z,35.21
2019-01-12T13:58:04.489Z,35.16
2019-01-12T14:00:37.688Z,35.76
2019-01-12T14:03:06.450Z,36.28
2019-01-12T14:05:37.572Z,36.65
2019-01-12T14:08:06.651Z,37.30
2019-01-12T14:10:35.263Z,38.23
2019-01-12T14:13:08.818Z,37.96
2019-01-12T14:15:37.450Z,38.46
2019-01-12T14:18:07.451Z,39.94
2019-01-12T14:20:37.091Z,40.91
2019-01-12T14:23:08.697Z,41.93
2019-01-12T14:25:43.420Z,42.37
2019-01-12T14:28:12.056Z,43.30
2019-01-12T14:30:40.810Z,43.96
2019-01-12T14:33:09.494Z,44.55
2019-01-12T14:35:38.150Z,45.95
2019-01-12T14:38:06.965Z,46.48
2019-01-12T14:40:41.323Z,48.41
2019-01-12T14:43:09.939Z,48.68
2019-01-12T14:45:38.650Z,50.33
2019-01-12T14:48:21.619Z,50.47
2019-01-12T14:50:50.413Z,51.65
2019-01-12T14:53:36.266Z,53.63
2019-01-12T15:18:43.556Z,65.52
2019-01-12T15:25:06.283Z,65.03
2019-01-12T15:28:13.425Z,65.16
2019-01-12T15:31:21.859Z,65.58
2019-01-12T15:34:28.986Z,66.26
2019-01-12T16:13:23.405Z,76.37
2019-01-12T16:16:12.722Z,76.66
2019-01-12T16:19:22.042Z,77.31
2019-01-12T16:22:28.766Z,78.12
2019-01-12T16:25:35.850Z,79.50
2019-01-12T16:28:25.239Z,79.41
2019-01-12T16:31:32.388Z,80.54
2019-01-12T16:34:39.583Z,82.26
2019-01-12T16:47:53.440Z,82.55
2019-01-12T16:51:19.648Z,82.67
2019-01-12T16:57:57.732Z,80.17
2019-01-12T17:01:06.130Z,80.34
2019-01-12T17:10:29.411Z,86.56
2019-01-12T17:16:40.240Z,90.04
2019-01-12T17:19:29.524Z,90.92
2019-01-12T17:22:36.640Z,92.15
2019-01-12T17:28:42.614Z,94.95
2019-01-12T17:31:51.067Z,92.72
2019-01-12T17:34:58.142Z,93.36
2019-01-12T17:38:06.589Z,93.07
2019-01-12T17:41:13.703Z,92.71
2019-01-12T17:44:22.105Z,92.09
2019-01-12T17:47:29.241Z,92.04
2019-01-12T18:03:40.045Z,89.08
2019-01-12T18:10:00.650Z,89.06
2019-01-12T18:22:48.118Z,89.98
2019-01-12T18:25:56.565Z,89.63
2019-01-12T18:35:34.816Z,88.98
2019-01-12T18:38:26.098Z,89.12
2019-01-12T18:41:33.601Z,88.40
2019-01-12T19:46:59.135Z,85.09
2019-01-12T19:53:04.941Z,86.52
2019-01-12T19:55:54.284Z,87.57
2019-01-12T19:59:01.368Z,89.02
2019-01-12T20:01:50.689Z,88.83
2019-01-12T20:08:01.643Z,88.34
2019-01-12T20:17:39.811Z,88.50
2019-01-12T20:20:46.944Z,89.42
2019-01-12T20:33:36.622Z,88.21
2019-01-12T20:36:43.713Z,89.38
2019-01-12T20:56:10.227Z,92.73
2019-01-12T21:18:31.248Z,87.86
2019-01-12T22:14:00.901Z,93.80
2019-01-12T22:16:50.338Z,95.03
2019-01-12T23:16:32.997Z,99.60
2019-01-12T23:19:59.432Z,100.00
